createdAt,value
2023-03-11T00:02:01.325Z,99147.64
2023-03-11T00:04:34.824Z,99149.73
2023-03-11T00:07:12.786Z,99152.91
2023-03-11T00:09:45.855Z,99148.11
2023-03-11T00:12:19.096Z,99142.03
2023-03-11T00:14:52.443Z,99145.21
2023-03-11T00:17:27.118Z,99132.86
2023-03-11T00:20:00.464Z,99136.52
2023-03-11T00:22:35.088Z,99134.25
2023-03-11T00:25:09.321Z,99129.86
2023-03-11T00:27:42.638Z,99136.27
2023-03-11T00:30:16.819Z,99135.05
2023-03-11T00:32:52.489Z,99126.46
2023-03-11T00:35:30.406Z,99126.29
2023-03-11T00:38:08.327Z,99122.98
2023-03-11T00:40:42.258Z,99128.17
2023-03-11T00:43:17.291Z,99128.00
2023-03-11T00:45:50.738Z,99124.28
2023-03-11T00:48:24.250Z,99129.72
2023-03-11T00:50:58.249Z,99123.48
2023-03-11T00:53:32.140Z,99125.66
2023-03-11T00:56:14.049Z,99120.47
2023-03-11T00:58:47.449Z,99111.30
2023-03-11T01:01:23.039Z,99118.13
2023-03-11T01:03:56.379Z,99119.58
2023-03-11T01:06:43.134Z,99111.05
2023-03-11T01:09:06.821Z,99113.26
2023-03-11T01:11:40.948Z,99104.72
2023-03-11T01:14:14.309Z,99112.17
2023-03-11T01:16:47.961Z,99109.11
2023-03-11T01:19:22.143Z,99113.34
2023-03-11T01:21:55.341Z,99115.59
2023-03-11T01:24:28.639Z,99106.59
2023-03-11T01:27:02.678Z,99102.28
2023-03-11T01:29:36.621Z,99100.10
2023-03-11T01:32:11.606Z,99108.77
2023-03-11T01:34:44.857Z,99103.50
2023-03-11T01:37:20.579Z,99102.70
2023-03-11T01:39:53.938Z,99100.65
2023-03-11T01:42:27.187Z,99100.81
2023-03-11T01:45:00.639Z,99103.91
2023-03-11T01:47:40.156Z,99098.05
2023-03-11T01:50:15.723Z,99101.23
2023-03-11T01:52:49.079Z,99113.00
2023-03-11T01:55:22.900Z,99103.84
2023-03-11T01:57:56.889Z,99101.78
2023-03-11T02:00:30.150Z,99095.30
2023-03-11T02:03:14.502Z,99091.40
2023-03-11T02:05:48.793Z,99093.20
2023-03-11T02:08:22.486Z,99097.17
2023-03-11T02:10:56.732Z,99108.52
2023-03-11T02:13:30.752Z,99100.56
2023-03-11T02:16:05.353Z,99106.59
2023-03-11T02:18:39.710Z,99103.75
2023-03-11T02:21:25.632Z,99107.91
2023-03-11T02:24:28.235Z,99109.12
2023-03-11T02:27:08.618Z,99100.99
2023-03-11T02:29:43.952Z,99104.17
2023-03-11T02:32:18.633Z,99105.94
2023-03-11T02:34:52.018Z,99097.77
2023-03-11T02:37:25.770Z,99089.55
2023-03-11T02:40:23.294Z,99087.77
2023-03-11T02:43:03.854Z,99075.53
2023-03-11T02:45:40.419Z,99084.13
2023-03-11T02:48:14.717Z,99078.84
2023-03-11T02:50:49.002Z,99086.55
2023-03-11T02:53:21.651Z,99089.73
2023-03-11T02:55:55.258Z,99088.43
2023-03-11T02:58:28.418Z,99079.73
2023-03-11T03:01:02.085Z,99079.81
2023-03-11T03:03:35.775Z,99080.39
2023-03-11T03:06:10.091Z,99079.17
2023-03-11T03:08:44.085Z,99077.38
2023-03-11T03:11:17.706Z,99082.10
2023-03-11T03:13:52.328Z,99087.21
2023-03-11T03:16:25.721Z,99086.55
2023-03-11T03:18:59.450Z,99081.12
2023-03-11T03:21:33.289Z,99093.44
2023-03-11T03:24:07.417Z,99097.58
2023-03-11T03:26:41.358Z,99093.52
2023-03-11T03:29:14.637Z,99094.66
2023-03-11T03:31:48.371Z,99090.59
2023-03-11T03:34:21.935Z,99085.82
2023-03-11T03:36:55.726Z,99087.61
2023-03-11T03:39:30.657Z,99088.08
2023-03-11T03:42:04.067Z,99089.30
2023-03-11T03:44:39.174Z,99109.51
2023-03-11T03:47:13.102Z,99102.23
2023-03-11T03:49:46.433Z,99106.30
2023-03-11T03:52:20.017Z,99097.76
2023-03-11T03:54:53.928Z,99103.86
2023-03-11T03:57:27.015Z,99099.64
2023-03-11T04:00:00.615Z,99095.33
2023-03-11T04:02:35.803Z,99085.95
2023-03-11T04:05:10.444Z,99081.73
2023-03-11T04:07:44.553Z,99080.43
2023-03-11T04:10:18.492Z,99090.14
2023-03-11T04:12:51.812Z,99090.14
2023-03-11T04:15:26.638Z,99095.67
2023-03-11T04:18:00.581Z,99085.13
2023-03-11T04:20:34.670Z,99069.09
2023-03-11T04:23:07.997Z,99070.52
2023-03-11T04:25:41.426Z,99077.00
2023-03-11T04:28:15.132Z,99077.09
2023-03-11T04:30:48.356Z,99077.50
2023-03-11T04:33:22.249Z,99059.09
2023-03-11T04:35:55.881Z,99067.98
2023-03-11T04:38:29.478Z,99060.53
2023-03-11T04:41:05.605Z,99063.84
2023-03-11T04:43:42.069Z,99059.94
2023-03-11T04:46:15.573Z,99061.97
2023-03-11T04:48:48.983Z,99064.97
2023-03-11T04:51:22.058Z,99061.31
2023-03-11T04:53:55.408Z,99060.18
2023-03-11T04:56:29.255Z,99058.55
2023-03-11T04:59:03.909Z,99051.48
2023-03-11T05:01:37.931Z,99047.83
2023-03-11T05:04:13.503Z,99051.84
2023-03-11T05:06:49.924Z,99044.13
2023-03-11T05:09:23.709Z,99043.91
2023-03-11T05:11:57.501Z,99051.52
2023-03-11T05:14:31.452Z,99054.69
2023-03-11T05:17:05.627Z,99043.45
2023-03-11T05:19:39.695Z,99048.09
2023-03-11T05:22:15.094Z,99049.92
2023-03-11T05:24:49.386Z,99050.50
2023-03-11T05:27:23.824Z,99041.29
2023-03-11T05:29:58.882Z,99046.33
2023-03-11T05:32:33.246Z,99043.73
2023-03-11T05:35:08.145Z,99043.92
2023-03-11T05:37:42.035Z,99043.20
2023-03-11T05:40:16.076Z,99038.95
2023-03-11T05:42:49.944Z,99042.55
2023-03-11T05:45:23.578Z,99054.13
2023-03-11T05:47:57.448Z,99050.98
2023-03-11T05:50:31.502Z,99050.06
2023-03-11T05:53:05.609Z,99062.90
2023-03-11T05:55:39.029Z,99059.68
2023-03-11T05:58:14.051Z,99045.18
2023-03-11T06:00:48.172Z,99046.45
2023-03-11T06:03:21.597Z,99039.68
2023-03-11T06:05:56.169Z,99037.64
2023-03-11T06:08:31.732Z,99042.35
2023-03-11T06:11:09.019Z,99052.13
2023-03-11T06:13:43.241Z,99068.45
2023-03-11T06:16:18.127Z,99057.63
2023-03-11T06:18:53.082Z,99054.14
2023-03-11T06:21:27.757Z,99051.13
2023-03-11T06:24:01.780Z,99059.07
2023-03-11T06:26:35.899Z,99056.16
2023-03-11T06:29:14.841Z,99040.12
2023-03-11T06:31:48.683Z,99038.96
2023-03-11T06:34:21.816Z,99040.33
2023-03-11T06:36:56.075Z,99034.32
2023-03-11T06:39:29.348Z,99027.19
2023-03-11T06:42:05.917Z,99035.91
2023-03-11T06:44:40.184Z,99024.78
2023-03-11T06:47:13.735Z,99017.67
2023-03-11T06:49:47.425Z,99021.15
2023-03-11T06:52:22.438Z,99026.09
2023-03-11T06:54:55.683Z,99018.68
2023-03-11T06:57:31.260Z,99022.36
2023-03-11T07:00:08.265Z,99021.88
2023-03-11T07:02:42.880Z,99023.88
2023-03-11T07:05:17.554Z,99022.09
2023-03-11T07:07:53.465Z,99021.20
2023-03-11T07:10:27.041Z,99023.02
2023-03-11T07:13:04.928Z,99017.31
2023-03-11T07:15:38.572Z,99020.17
2023-03-11T07:18:11.887Z,99009.20
2023-03-11T07:20:45.786Z,99008.81
2023-03-11T07:23:20.653Z,99007.91
2023-03-11T07:25:56.363Z,99001.87
2023-03-11T07:28:30.800Z,98993.97
2023-03-11T07:31:09.989Z,98985.98
2023-03-11T07:33:44.978Z,98995.74
2023-03-11T07:36:22.237Z,98986.36
2023-03-11T07:39:04.618Z,98983.58
2023-03-11T07:41:38.790Z,98980.72
2023-03-11T07:44:18.284Z,98977.73
2023-03-11T07:46:52.039Z,98971.86
2023-03-11T07:49:25.448Z,98974.81
2023-03-11T07:51:59.892Z,98978.20
2023-03-11T07:54:33.792Z,98976.80
2023-03-11T07:57:09.104Z,98959.69
2023-03-11T07:59:42.634Z,98963.11
2023-03-11T08:02:17.352Z,98968.59
2023-03-11T08:04:51.309Z,98965.50
2023-03-11T08:07:25.305Z,98956.75
2023-03-11T08:09:59.680Z,98956.23
2023-03-11T08:12:33.599Z,98952.33
2023-03-11T08:15:08.175Z,98956.70
2023-03-11T08:17:42.934Z,98944.34
2023-03-11T08:20:16.499Z,98953.01
2023-03-11T08:22:58.149Z,98954.61
2023-03-11T08:25:27.340Z,98949.56
2023-03-11T08:28:00.487Z,98947.70
2023-03-11T08:30:34.644Z,98945.70
2023-03-11T08:33:09.053Z,98943.17
2023-03-11T08:35:42.897Z,98940.20
2023-03-11T08:38:16.783Z,98945.58
2023-03-11T08:40:50.016Z,98940.08
2023-03-11T08:43:23.478Z,98935.53
2023-03-11T08:45:56.853Z,98929.59
2023-03-11T08:48:30.853Z,98934.09
2023-03-11T08:51:04.211Z,98928.06
2023-03-11T08:53:38.125Z,98930.29
2023-03-11T08:56:12.420Z,98930.25
2023-03-11T08:58:46.005Z,98930.77
2023-03-11T09:01:20.525Z,98928.63
2023-03-11T09:03:54.682Z,98926.09
2023-03-11T09:06:27.658Z,98926.21
2023-03-11T09:09:01.355Z,98926.65
2023-03-11T09:11:37.150Z,98927.05
2023-03-11T09:14:11.364Z,98929.66
2023-03-11T09:16:46.737Z,98928.36
2023-03-11T09:19:21.662Z,98922.20
2023-03-11T09:21:55.214Z,98922.03
2023-03-11T09:24:28.585Z,98928.37
2023-03-11T09:27:05.513Z,98922.95
2023-03-11T09:29:40.681Z,98925.89
2023-03-11T09:32:14.688Z,98914.11
2023-03-11T09:34:50.088Z,98917.25
2023-03-11T09:37:23.737Z,98916.97
2023-03-11T09:39:56.946Z,98910.11
2023-03-11T09:42:46.861Z,98907.58
2023-03-11T09:45:35.206Z,98905.13
2023-03-11T09:48:25.818Z,98903.11
2023-03-11T09:51:11.712Z,98894.57
2023-03-11T09:53:47.271Z,98893.78
2023-03-11T09:56:22.829Z,98887.39
2023-03-11T09:59:06.062Z,98884.45
2023-03-11T10:01:45.031Z,98880.59
2023-03-11T10:04:46.197Z,98870.90
2023-03-11T10:07:23.286Z,98870.39
2023-03-11T10:10:01.257Z,98867.25
2023-03-11T10:12:54.003Z,98867.13
2023-03-11T10:15:34.865Z,98855.66
2023-03-11T10:18:19.985Z,98851.25
2023-03-11T10:21:15.915Z,98852.48
2023-03-11T10:24:05.128Z,98858.48
2023-03-11T10:26:48.870Z,98846.05
2023-03-11T10:29:26.609Z,98844.10
2023-03-11T10:32:16.610Z,98844.89
2023-03-11T10:35:19.944Z,98837.71
2023-03-11T10:38:03.329Z,98830.52
2023-03-11T10:40:45.784Z,98822.06
2023-03-11T10:43:38.540Z,98824.95
2023-03-11T10:46:29.046Z,98815.93
2023-03-11T10:49:02.763Z,98807.98
2023-03-11T10:51:39.337Z,98803.06
2023-03-11T10:54:26.758Z,98791.67
2023-03-11T10:57:06.115Z,98790.67
2023-03-11T10:59:52.834Z,98785.39
2023-03-11T11:02:34.960Z,98783.53
2023-03-11T11:05:24.712Z,98780.34
2023-03-11T11:08:18.042Z,98778.86
2023-03-11T11:10:55.733Z,98764.87
2023-03-11T11:13:34.822Z,98762.20
2023-03-11T11:16:21.345Z,98752.88
2023-03-11T11:19:13.724Z,98746.72
2023-03-11T11:21:52.666Z,98729.80
2023-03-11T11:24:30.388Z,98721.17
2023-03-11T11:27:22.262Z,98709.05
2023-03-11T11:30:16.832Z,98700.88
2023-03-11T11:32:52.246Z,98697.08
2023-03-11T11:35:27.367Z,98680.98
2023-03-11T11:38:05.624Z,98673.65
2023-03-11T11:40:40.437Z,98675.08
2023-03-11T11:43:40.146Z,98671.66
2023-03-11T11:46:41.582Z,98664.37
2023-03-11T11:49:33.561Z,98661.03
2023-03-11T11:52:22.084Z,98664.67
2023-03-11T11:55:02.388Z,98664.79
2023-03-11T11:57:37.201Z,98653.99
2023-03-11T12:00:21.407Z,98655.92
2023-03-11T12:03:36.768Z,98653.45
2023-03-11T12:06:32.646Z,98639.23
2023-03-11T12:09:32.788Z,98632.89
2023-03-11T12:12:43.953Z,98628.26
2023-03-11T12:15:30.770Z,98629.77
2023-03-11T12:18:07.369Z,98619.02
2023-03-11T12:20:50.500Z,98616.53
2023-03-11T12:23:43.245Z,98609.58
2023-03-11T12:26:23.018Z,98606.58
2023-03-11T12:29:06.247Z,98599.28
2023-03-11T12:31:42.048Z,98580.21
2023-03-11T12:34:17.891Z,98584.30
2023-03-11T12:36:52.221Z,98569.17
2023-03-11T12:39:36.362Z,98564.08
2023-03-11T12:42:20.982Z,98562.44
2023-03-11T12:44:54.285Z,98558.67
2023-03-11T12:47:29.376Z,98552.22
2023-03-11T12:50:15.611Z,98541.83
2023-03-11T12:52:57.494Z,98540.73
2023-03-11T12:55:35.404Z,98540.75
2023-03-11T12:58:41.311Z,98533.98
2023-03-11T13:01:32.175Z,98521.48
2023-03-11T13:04:21.654Z,98528.73
2023-03-11T13:07:15.956Z,98533.70
2023-03-11T13:10:17.788Z,98520.66
2023-03-11T13:12:54.230Z,98518.50
2023-03-11T13:15:38.905Z,98515.06
2023-03-11T13:18:30.809Z,98511.20
2023-03-11T13:21:05.646Z,98502.94
2023-03-11T13:23:40.812Z,98506.11
2023-03-11T13:26:24.825Z,98492.97
2023-03-11T13:29:39.526Z,98492.13
2023-03-11T13:33:00.303Z,98491.25
2023-03-11T13:36:01.811Z,98491.64
2023-03-11T13:38:57.716Z,98486.33
2023-03-11T13:41:37.504Z,98478.41
2023-03-11T13:44:27.356Z,98475.73
2023-03-11T13:47:14.409Z,98473.06
2023-03-11T13:50:11.641Z,98472.56
2023-03-11T13:52:54.775Z,98470.75
2023-03-11T13:55:46.815Z,98458.41
2023-03-11T13:58:29.534Z,98450.91
2023-03-11T14:01:03.943Z,98451.69
2023-03-11T14:03:44.155Z,98449.48
2023-03-11T14:06:20.159Z,98446.84
2023-03-11T14:08:58.858Z,98444.66
2023-03-11T14:11:32.315Z,98443.30
2023-03-11T14:14:10.957Z,98452.01
2023-03-11T14:16:47.395Z,98451.09
2023-03-11T14:19:22.398Z,98449.73
2023-03-11T14:21:59.141Z,98452.34
2023-03-11T14:24:33.840Z,98453.66
2023-03-11T14:27:10.682Z,98454.97
2023-03-11T14:29:45.810Z,98451.05
2023-03-11T14:32:32.549Z,98449.27
2023-03-11T14:35:21.197Z,98456.71
2023-03-11T14:37:54.808Z,98447.50
2023-03-11T14:40:42.095Z,98446.63
2023-03-11T14:43:15.158Z,98443.11
2023-03-11T14:45:48.539Z,98447.90
2023-03-11T14:48:35.231Z,98434.77
2023-03-11T14:51:25.113Z,98433.44
2023-03-11T14:54:08.652Z,98425.98
2023-03-11T14:56:43.644Z,98419.39
2023-03-11T14:59:25.536Z,98434.69
2023-03-11T15:02:02.875Z,98433.77
2023-03-11T15:04:38.549Z,98441.98
2023-03-11T15:07:11.669Z,98433.17
2023-03-11T15:09:45.597Z,98433.08
2023-03-11T15:12:43.363Z,98430.79
2023-03-11T15:15:31.205Z,98425.94
2023-03-11T15:18:04.985Z,98431.09
2023-03-11T15:20:40.117Z,98431.90
2023-03-11T15:23:17.916Z,98443.14
2023-03-11T15:25:51.956Z,98452.63
2023-03-11T15:28:30.766Z,98451.19
2023-03-11T15:31:29.414Z,98458.48
2023-03-11T15:34:22.530Z,98459.23
2023-03-11T15:37:01.713Z,98454.72
2023-03-11T15:39:39.682Z,98454.17
2023-03-11T15:42:24.747Z,98449.28
2023-03-11T15:45:20.952Z,98452.20
2023-03-11T15:47:53.567Z,98445.47
2023-03-11T15:50:43.050Z,98448.81
2023-03-11T15:53:05.244Z,98454.78
2023-03-11T15:55:40.386Z,98453.78
2023-03-11T15:58:16.954Z,98459.23
2023-03-11T16:00:55.294Z,98467.80
2023-03-11T16:03:31.192Z,98464.59
2023-03-11T16:06:03.254Z,98472.72
2023-03-11T16:08:36.765Z,98480.00
2023-03-11T16:11:13.813Z,98481.14
2023-03-11T16:13:49.952Z,98487.54
2023-03-11T16:16:23.490Z,98484.78
2023-03-11T16:18:56.870Z,98483.77
2023-03-11T16:21:36.803Z,98481.41
2023-03-11T16:24:11.730Z,98479.92
2023-03-11T16:26:45.279Z,98468.77
2023-03-11T16:29:19.581Z,98450.23
2023-03-11T16:31:54.946Z,98442.59
2023-03-11T16:34:28.592Z,98435.80
2023-03-11T16:37:01.965Z,98442.94
2023-03-11T16:39:37.795Z,98438.50
2023-03-11T16:42:11.122Z,98434.38
2023-03-11T16:44:44.867Z,98431.14
2023-03-11T16:47:18.294Z,98425.75
2023-03-11T16:49:53.144Z,98424.28
2023-03-11T16:52:26.604Z,98416.41
2023-03-11T16:54:59.868Z,98414.27
2023-03-11T16:57:33.498Z,98412.05
2023-03-11T17:00:10.333Z,98408.89
2023-03-11T17:02:45.361Z,98412.20
2023-03-11T17:05:19.165Z,98410.82
2023-03-11T17:07:59.564Z,98409.91
2023-03-11T17:10:43.644Z,98406.78
2023-03-11T17:13:19.045Z,98408.00
2023-03-11T17:16:01.358Z,98407.09
2023-03-11T17:18:35.154Z,98413.53
2023-03-11T17:21:14.778Z,98434.34
2023-03-11T17:23:47.703Z,98438.58
2023-03-11T17:26:21.124Z,98438.61
2023-03-11T17:28:54.654Z,98442.17
2023-03-11T17:31:27.468Z,98450.45
2023-03-11T17:34:01.791Z,98458.28
2023-03-11T17:36:35.575Z,98449.06
2023-03-11T17:39:08.536Z,98434.70
2023-03-11T17:41:42.205Z,98429.30
2023-03-11T17:44:15.741Z,98422.16
2023-03-11T17:46:48.635Z,98425.13
2023-03-11T17:49:24.660Z,98424.99
2023-03-11T17:51:58.653Z,98424.04
2023-03-11T17:54:32.743Z,98424.04
2023-03-11T17:57:05.943Z,98418.34
2023-03-11T17:59:39.258Z,98422.16
2023-03-11T18:02:15.408Z,98418.55
2023-03-11T18:04:54.205Z,98458.52
2023-03-11T18:07:27.026Z,98433.30
2023-03-11T18:10:00.461Z,98435.42
2023-03-11T18:12:33.502Z,98435.42
2023-03-11T18:15:10.656Z,98436.77
2023-03-11T18:17:44.052Z,98436.16
2023-03-11T18:20:17.375Z,98439.55
2023-03-11T18:22:50.051Z,98451.81
2023-03-11T18:25:22.846Z,98463.13
2023-03-11T18:27:55.682Z,98453.59
2023-03-11T18:30:28.575Z,98450.98
2023-03-11T18:33:02.092Z,98454.81
2023-03-11T18:35:35.126Z,98459.03
2023-03-11T18:38:09.144Z,98459.89
2023-03-11T18:40:43.217Z,98469.33
2023-03-11T18:43:16.577Z,98480.77
2023-03-11T18:45:50.006Z,98481.59
2023-03-11T18:48:23.811Z,98475.07
2023-03-11T18:50:57.456Z,98472.98
2023-03-11T18:53:31.254Z,98461.69
2023-03-11T18:56:08.670Z,98461.24
2023-03-11T18:58:42.270Z,98466.55
2023-03-11T19:02:27.862Z,98476.04
2023-03-11T19:05:01.756Z,98464.30
2023-03-11T19:07:35.016Z,98452.64
2023-03-11T19:10:11.544Z,98453.95
2023-03-11T19:12:45.907Z,98451.81
2023-03-11T19:15:19.818Z,98455.16
2023-03-11T19:18:05.876Z,98443.85
2023-03-11T19:20:30.865Z,98400.28
2023-03-11T19:23:05.634Z,98382.36
2023-03-11T19:25:39.393Z,98382.66
2023-03-11T19:28:12.377Z,98380.39
2023-03-11T19:30:45.560Z,98375.86
2023-03-11T19:33:19.171Z,98380.52
2023-03-11T19:35:58.483Z,98373.32
2023-03-11T19:38:32.590Z,98368.30
2023-03-11T19:41:07.007Z,98372.42
2023-03-11T19:43:39.637Z,98378.36
2023-03-11T19:46:20.234Z,98381.66
2023-03-11T19:48:55.020Z,98379.91
2023-03-11T19:51:32.963Z,98381.94
2023-03-11T19:54:02.523Z,98376.25
2023-03-11T19:56:36.092Z,98370.11
2023-03-11T19:59:09.427Z,98364.47
2023-03-11T20:01:45.502Z,98363.55
2023-03-11T20:04:19.391Z,98363.88
2023-03-11T20:06:53.426Z,98363.93
2023-03-11T20:09:26.156Z,98354.00
2023-03-11T20:12:00.824Z,98357.08
2023-03-11T20:14:34.696Z,98353.51
2023-03-11T20:17:08.357Z,98352.02
2023-03-11T20:19:41.847Z,98344.88
2023-03-11T20:22:15.535Z,98347.86
2023-03-11T20:24:50.337Z,98336.47
2023-03-11T20:27:23.615Z,98333.81
2023-03-11T20:29:57.689Z,98333.81
2023-03-11T20:32:31.398Z,98332.47
2023-03-11T20:35:05.034Z,98331.70
2023-03-11T20:37:39.172Z,98329.43
2023-03-11T20:40:14.428Z,98335.02
2023-03-11T20:42:48.330Z,98331.11
2023-03-11T20:45:23.844Z,98318.13
2023-03-11T20:47:57.685Z,98321.23
2023-03-11T20:50:31.864Z,98311.14
2023-03-11T20:53:06.163Z,98311.19
2023-03-11T20:55:44.031Z,98310.76
2023-03-11T20:58:16.885Z,98313.37
2023-03-11T21:00:49.859Z,98308.14
2023-03-11T21:03:23.224Z,98301.63
2023-03-11T21:05:56.094Z,98295.94
2023-03-11T21:08:28.972Z,98296.81
2023-03-11T21:11:03.815Z,98302.55
2023-03-11T21:13:37.056Z,98293.87
2023-03-11T21:16:11.697Z,98296.13
2023-03-11T21:18:46.215Z,98297.97
2023-03-11T21:21:20.513Z,98296.72
2023-03-11T21:23:53.517Z,98290.25
2023-03-11T21:26:26.433Z,98285.13
2023-03-11T21:28:59.970Z,98285.27
2023-03-11T21:31:33.188Z,98284.93
2023-03-11T21:34:06.060Z,98284.48
2023-03-11T21:36:39.877Z,98297.95
2023-03-11T21:39:14.886Z,98288.34
2023-03-11T21:41:47.880Z,98292.21
2023-03-11T21:44:21.685Z,98294.44
2023-03-11T21:46:54.778Z,98284.48
2023-03-11T21:49:28.935Z,98283.19
2023-03-11T21:52:02.512Z,98281.45
2023-03-11T21:54:35.533Z,98274.55
2023-03-11T21:57:09.084Z,98271.50
2023-03-11T21:59:42.139Z,98268.89
2023-03-11T22:02:17.763Z,98266.73
2023-03-11T22:04:51.201Z,98265.12
2023-03-11T22:07:24.411Z,98268.21
2023-03-11T22:09:57.746Z,98278.64
2023-03-11T22:12:31.370Z,98286.45
2023-03-11T22:15:04.527Z,98283.67
2023-03-11T22:17:39.352Z,98282.28
2023-03-11T22:20:13.569Z,98286.70
2023-03-11T22:22:46.683Z,98292.30
2023-03-11T22:25:20.662Z,98290.03
2023-03-11T22:27:53.578Z,98285.22
2023-03-11T22:30:26.755Z,98283.13
2023-03-11T22:33:01.103Z,98288.05
2023-03-11T22:35:34.443Z,98280.80
2023-03-11T22:38:09.656Z,98279.16
2023-03-11T22:40:43.933Z,98280.13
2023-03-11T22:43:17.061Z,98274.59
2023-03-11T22:45:49.936Z,98272.91
2023-03-11T22:48:23.049Z,98256.41
2023-03-11T22:50:56.149Z,98250.45
2023-03-11T22:53:29.103Z,98237.50
2023-03-11T22:56:02.340Z,98233.67
2023-03-11T22:58:35.855Z,98232.06
2023-03-11T23:01:09.619Z,98216.11
2023-03-11T23:03:44.522Z,98208.02
2023-03-11T23:06:21.282Z,98191.18
2023-03-11T23:08:54.458Z,98195.97
2023-03-11T23:11:28.113Z,98189.45
2023-03-11T23:14:01.660Z,98183.39
2023-03-11T23:16:34.690Z,98166.92
2023-03-11T23:19:09.116Z,98163.91
2023-03-11T23:21:42.826Z,98154.42
2023-03-11T23:24:15.548Z,98150.52
2023-03-11T23:26:48.494Z,98149.61
2023-03-11T23:29:21.758Z,98150.44
2023-03-11T23:31:55.241Z,98153.84
2023-03-11T23:34:29.473Z,98154.74
2023-03-11T23:37:05.023Z,98173.05
2023-03-11T23:39:36.004Z,98171.30
2023-03-11T23:42:24.500Z,98167.83
2023-03-11T23:44:44.191Z,98174.66
2023-03-11T23:47:17.545Z,98175.53
2023-03-11T23:49:50.532Z,98167.66
2023-03-11T23:52:23.720Z,98173.28
2023-03-11T23:54:57.490Z,98182.05
2023-03-11T23:57:30.464Z,98176.88
